sensor_id;sensor_type;location;lat;lon;timestamp;temperature;humidity
2200;DHT22;1106;48.762;9.168;2022-10-30T00:01:43;16.90;76.60
2200;DHT22;1106;48.762;9.168;2022-10-30T00:04:11;17.00;76.50
2200;DHT22;1106;48.762;9.168;2022-10-30T00:06:38;17.00;76.40
2200;DHT22;1106;48.762;9.168;2022-10-30T00:09:05;17.00;76.50
2200;DHT22;1106;48.762;9.168;2022-10-30T00:11:32;17.00;76.50
2200;DHT22;1106;48.762;9.168;2022-10-30T00:13:58;17.00;76.50
2200;DHT22;1106;48.762;9.168;2022-10-30T00:16:25;17.00;76.50
2200;DHT22;1106;48.762;9.168;2022-10-30T00:18:54;17.00;76.30
2200;DHT22;1106;48.762;9.168;2022-10-30T00:21:20;17.00;76.30
2200;DHT22;1106;48.762;9.168;2022-10-30T00:23:49;17.00;76.30
2200;DHT22;1106;48.762;9.168;2022-10-30T00:26:16;17.00;76.30
2200;DHT22;1106;48.762;9.168;2022-10-30T00:28:47;17.00;76.20
2200;DHT22;1106;48.762;9.168;2022-10-30T00:31:14;17.00;76.00
2200;DHT22;1106;48.762;9.168;2022-10-30T00:33:41;17.10;75.90
2200;DHT22;1106;48.762;9.168;2022-10-30T00:36:09;17.10;75.70
2200;DHT22;1106;48.762;9.168;2022-10-30T00:38:36;17.10;75.70
2200;DHT22;1106;48.762;9.168;2022-10-30T00:41:03;17.10;75.50
2200;DHT22;1106;48.762;9.168;2022-10-30T00:43:33;17.10;75.30
2200;DHT22;1106;48.762;9.168;2022-10-30T00:46:05;17.20;75.10
2200;DHT22;1106;48.762;9.168;2022-10-30T00:48:33;17.20;75.10
2200;DHT22;1106;48.762;9.168;2022-10-30T00:51:02;17.20;75.00
2200;DHT22;1106;48.762;9.168;2022-10-30T00:53:31;17.20;74.90
2200;DHT22;1106;48.762;9.168;2022-10-30T00:56:01;17.20;74.80
2200;DHT22;1106;48.762;9.168;2022-10-30T00:58:38;17.30;74.80
2200;DHT22;1106;48.762;9.168;2022-10-30T01:01:12;17.20;75.00
2200;DHT22;1106;48.762;9.168;2022-10-30T01:03:40;17.20;75.20
2200;DHT22;1106;48.762;9.168;2022-10-30T01:06:09;17.20;75.50
2200;DHT22;1106;48.762;9.168;2022-10-30T01:08:38;17.10;76.20
2200;DHT22;1106;48.762;9.168;2022-10-30T01:11:06;17.00;77.10
2200;DHT22;1106;48.762;9.168;2022-10-30T01:13:35;16.90;78.80
2200;DHT22;1106;48.762;9.168;2022-10-30T01:16:24;17.00;80.10
2200;DHT22;1106;48.762;9.168;2022-10-30T01:18:56;17.00;83.70
2200;DHT22;1106;48.762;9.168;2022-10-30T01:21:36;16.90;85.30
2200;DHT22;1106;48.762;9.168;2022-10-30T01:24:27;16.90;85.80
2200;DHT22;1106;48.762;9.168;2022-10-30T01:27:06;16.60;87.30
2200;DHT22;1106;48.762;9.168;2022-10-30T01:29:47;16.40;88.10
2200;DHT22;1106;48.762;9.168;2022-10-30T01:32:33;16.40;88.20
2200;DHT22;1106;48.762;9.168;2022-10-30T01:35:08;16.30;88.20
2200;DHT22;1106;48.762;9.168;2022-10-30T01:37:40;16.30;88.50
2200;DHT22;1106;48.762;9.168;2022-10-30T01:40:13;16.30;88.60
2200;DHT22;1106;48.762;9.168;2022-10-30T01:42:45;16.20;89.10
2200;DHT22;1106;48.762;9.168;2022-10-30T01:45:19;16.20;89.10
2200;DHT22;1106;48.762;9.168;2022-10-30T01:47:58;16.10;89.30
2200;DHT22;1106;48.762;9.168;2022-10-30T01:50:35;16.10;89.60
2200;DHT22;1106;48.762;9.168;2022-10-30T01:53:10;16.10;89.50
2200;DHT22;1106;48.762;9.168;2022-10-30T01:55:44;16.10;89.60
2200;DHT22;1106;48.762;9.168;2022-10-30T01:58:19;16.10;89.60
2200;DHT22;1106;48.762;9.168;2022-10-30T02:00:51;16.00;89.40
2200;DHT22;1106;48.762;9.168;2022-10-30T02:03:19;16.00;89.10
2200;DHT22;1106;48.762;9.168;2022-10-30T02:05:48;16.10;88.90
2200;DHT22;1106;48.762;9.168;2022-10-30T02:08:16;16.00;88.40
2200;DHT22;1106;48.762;9.168;2022-10-30T02:10:46;16.00;87.30
2200;DHT22;1106;48.762;9.168;2022-10-30T02:13:14;16.00;86.50
2200;DHT22;1106;48.762;9.168;2022-10-30T02:15:42;15.80;85.80
2200;DHT22;1106;48.762;9.168;2022-10-30T02:18:09;15.80;86.20
2200;DHT22;1106;48.762;9.168;2022-10-30T02:20:37;15.80;86.00
2200;DHT22;1106;48.762;9.168;2022-10-30T02:23:05;15.80;85.10
2200;DHT22;1106;48.762;9.168;2022-10-30T02:25:33;15.70;84.40
2200;DHT22;1106;48.762;9.168;2022-10-30T02:28:00;15.60;84.30
2200;DHT22;1106;48.762;9.168;2022-10-30T02:30:27;15.60;84.60
2200;DHT22;1106;48.762;9.168;2022-10-30T02:32:54;15.50;85.00
2200;DHT22;1106;48.762;9.168;2022-10-30T02:35:20;15.40;85.60
2200;DHT22;1106;48.762;9.168;2022-10-30T02:37:49;15.40;85.80
2200;DHT22;1106;48.762;9.168;2022-10-30T02:40:16;15.40;86.00
2200;DHT22;1106;48.762;9.168;2022-10-30T02:42:43;15.40;86.00
2200;DHT22;1106;48.762;9.168;2022-10-30T02:45:10;15.50;85.90
2200;DHT22;1106;48.762;9.168;2022-10-30T02:47:37;15.40;85.20
2200;DHT22;1106;48.762;9.168;2022-10-30T02:50:04;15.40;85.30
2200;DHT22;1106;48.762;9.168;2022-10-30T02:52:31;15.30;85.80
2200;DHT22;1106;48.762;9.168;2022-10-30T02:55:00;15.20;86.30
2200;DHT22;1106;48.762;9.168;2022-10-30T02:57:27;15.10;86.70
2200;DHT22;1106;48.762;9.168;2022-10-30T02:59:53;15.10;86.90
2200;DHT22;1106;48.762;9.168;2022-10-30T03:02:21;15.10;86.80
2200;DHT22;1106;48.762;9.168;2022-10-30T03:04:47;15.10;86.90
2200;DHT22;1106;48.762;9.168;2022-10-30T03:07:14;15.10;87.10
2200;DHT22;1106;48.762;9.168;2022-10-30T03:09:41;15.10;87.10
2200;DHT22;1106;48.762;9.168;2022-10-30T03:12:09;15.10;86.80
2200;DHT22;1106;48.762;9.168;2022-10-30T03:14:36;15.10;86.80
2200;DHT22;1106;48.762;9.168;2022-10-30T03:17:03;15.10;86.50
2200;DHT22;1106;48.762;9.168;2022-10-30T03:19:30;15.10;86.20
2200;DHT22;1106;48.762;9.168;2022-10-30T03:21:57;15.10;86.00
2200;DHT22;1106;48.762;9.168;2022-10-30T03:24:24;15.10;86.10
2200;DHT22;1106;48.762;9.168;2022-10-30T03:26:51;15.00;86.40
2200;DHT22;1106;48.762;9.168;2022-10-30T03:29:19;15.00;86.90
2200;DHT22;1106;48.762;9.168;2022-10-30T03:31:46;15.00;86.90
2200;DHT22;1106;48.762;9.168;2022-10-30T03:34:13;15.00;86.90
2200;DHT22;1106;48.762;9.168;2022-10-30T03:36:40;15.00;86.90
2200;DHT22;1106;48.762;9.168;2022-10-30T03:39:07;15.00;86.90
2200;DHT22;1106;48.762;9.168;2022-10-30T03:41:34;14.90;86.80
2200;DHT22;1106;48.762;9.168;2022-10-30T03:44:01;14.90;86.90
2200;DHT22;1106;48.762;9.168;2022-10-30T03:46:29;14.90;87.10
2200;DHT22;1106;48.762;9.168;2022-10-30T03:48:56;14.90;87.10
2200;DHT22;1106;48.762;9.168;2022-10-30T03:51:22;14.90;87.00
2200;DHT22;1106;48.762;9.168;2022-10-30T03:53:49;14.90;87.10
2200;DHT22;1106;48.762;9.168;2022-10-30T03:56:16;14.90;86.90
2200;DHT22;1106;48.762;9.168;2022-10-30T03:58:44;14.90;86.90
2200;DHT22;1106;48.762;9.168;2022-10-30T04:01:11;14.80;87.20
2200;DHT22;1106;48.762;9.168;2022-10-30T04:03:39;14.80;87.40
2200;DHT22;1106;48.762;9.168;2022-10-30T04:06:06;14.80;87.60
2200;DHT22;1106;48.762;9.168;2022-10-30T04:08:34;14.70;87.80
2200;DHT22;1106;48.762;9.168;2022-10-30T04:11:01;14.70;87.70
2200;DHT22;1106;48.762;9.168;2022-10-30T04:13:28;14.70;87.70
2200;DHT22;1106;48.762;9.168;2022-10-30T04:15:55;14.70;87.70
2200;DHT22;1106;48.762;9.168;2022-10-30T04:18:22;14.70;87.80
2200;DHT22;1106;48.762;9.168;2022-10-30T04:20:50;14.60;88.00
2200;DHT22;1106;48.762;9.168;2022-10-30T04:23:19;14.60;88.00
2200;DHT22;1106;48.762;9.168;2022-10-30T04:25:46;14.60;88.00
2200;DHT22;1106;48.762;9.168;2022-10-30T04:28:13;14.60;88.10
2200;DHT22;1106;48.762;9.168;2022-10-30T04:30:40;14.50;88.40
2200;DHT22;1106;48.762;9.168;2022-10-30T04:33:10;14.50;88.70
2200;DHT22;1106;48.762;9.168;2022-10-30T04:35:37;14.50;88.80
2200;DHT22;1106;48.762;9.168;2022-10-30T04:38:07;14.40;88.80
2200;DHT22;1106;48.762;9.168;2022-10-30T04:40:36;14.40;88.90
2200;DHT22;1106;48.762;9.168;2022-10-30T04:43:03;14.40;88.80
2200;DHT22;1106;48.762;9.168;2022-10-30T04:45:30;14.40;88.80
2200;DHT22;1106;48.762;9.168;2022-10-30T04:48:01;14.40;88.80
2200;DHT22;1106;48.762;9.168;2022-10-30T04:50:29;14.40;88.60
2200;DHT22;1106;48.762;9.168;2022-10-30T04:53:00;14.50;88.40
2200;DHT22;1106;48.762;9.168;2022-10-30T04:55:29;14.50;88.10
2200;DHT22;1106;48.762;9.168;2022-10-30T04:57:56;14.50;87.90
2200;DHT22;1106;48.762;9.168;2022-10-30T05:00:24;14.60;87.60
2200;DHT22;1106;48.762;9.168;2022-10-30T05:02:51;14.60;87.20
2200;DHT22;1106;48.762;9.168;2022-10-30T05:05:19;14.70;87.20
2200;DHT22;1106;48.762;9.168;2022-10-30T05:07:46;14.70;87.00
2200;DHT22;1106;48.762;9.168;2022-10-30T05:10:13;14.70;86.90
2200;DHT22;1106;48.762;9.168;2022-10-30T05:12:43;14.70;86.90
2200;DHT22;1106;48.762;9.168;2022-10-30T05:15:11;14.70;86.80
2200;DHT22;1106;48.762;9.168;2022-10-30T05:17:39;14.70;86.90
2200;DHT22;1106;48.762;9.168;2022-10-30T05:20:07;14.70;86.90
2200;DHT22;1106;48.762;9.168;2022-10-30T05:22:34;14.70;86.90
2200;DHT22;1106;48.762;9.168;2022-10-30T05:25:01;14.70;87.00
2200;DHT22;1106;48.762;9.168;2022-10-30T05:27:28;14.70;87.00
2200;DHT22;1106;48.762;9.168;2022-10-30T05:29:56;14.70;87.20
2200;DHT22;1106;48.762;9.168;2022-10-30T05:32:23;14.60;87.30
2200;DHT22;1106;48.762;9.168;2022-10-30T05:34:50;14.70;87.30
2200;DHT22;1106;48.762;9.168;2022-10-30T05:37:17;14.70;87.30
2200;DHT22;1106;48.762;9.168;2022-10-30T05:39:44;14.70;87.10
2200;DHT22;1106;48.762;9.168;2022-10-30T05:42:11;14.70;87.10
2200;DHT22;1106;48.762;9.168;2022-10-30T05:44:37;14.70;87.50
2200;DHT22;1106;48.762;9.168;2022-10-30T05:47:06;14.60;87.40
2200;DHT22;1106;48.762;9.168;2022-10-30T05:49:32;14.50;87.70
2200;DHT22;1106;48.762;9.168;2022-10-30T05:51:59;14.50;87.60
2200;DHT22;1106;48.762;9.168;2022-10-30T05:54:26;14.50;87.60
2200;DHT22;1106;48.762;9.168;2022-10-30T05:56:53;14.50;87.60
2200;DHT22;1106;48.762;9.168;2022-10-30T05:59:20;14.60;87.40
2200;DHT22;1106;48.762;9.168;2022-10-30T06:01:48;14.50;87.60
2200;DHT22;1106;48.762;9.168;2022-10-30T06:04:16;14.40;88.00
2200;DHT22;1106;48.762;9.168;2022-10-30T06:06:43;14.50;87.80
2200;DHT22;1106;48.762;9.168;2022-10-30T06:09:10;14.50;87.80
2200;DHT22;1106;48.762;9.168;2022-10-30T06:11:37;14.50;87.60
2200;DHT22;1106;48.762;9.168;2022-10-30T06:14:04;14.40;87.70
2200;DHT22;1106;48.762;9.168;2022-10-30T06:16:31;14.50;87.80
2200;DHT22;1106;48.762;9.168;2022-10-30T06:18:57;14.40;87.80
2200;DHT22;1106;48.762;9.168;2022-10-30T06:21:26;14.40;87.90
2200;DHT22;1106;48.762;9.168;2022-10-30T06:23:53;14.50;87.60
2200;DHT22;1106;48.762;9.168;2022-10-30T06:26:20;14.50;87.40
2200;DHT22;1106;48.762;9.168;2022-10-30T06:28:47;14.60;87.00
2200;DHT22;1106;48.762;9.168;2022-10-30T06:31:14;14.60;87.00
2200;DHT22;1106;48.762;9.168;2022-10-30T06:33:41;14.50;86.90
2200;DHT22;1106;48.762;9.168;2022-10-30T06:36:08;14.60;86.70
2200;DHT22;1106;48.762;9.168;2022-10-30T06:38:36;14.60;86.70
2200;DHT22;1106;48.762;9.168;2022-10-30T06:41:03;14.70;86.40
2200;DHT22;1106;48.762;9.168;2022-10-30T06:43:30;14.70;86.40
2200;DHT22;1106;48.762;9.168;2022-10-30T06:45:57;14.70;86.20
2200;DHT22;1106;48.762;9.168;2022-10-30T06:48:24;14.70;86.00
2200;DHT22;1106;48.762;9.168;2022-10-30T06:50:53;14.70;85.80
2200;DHT22;1106;48.762;9.168;2022-10-30T06:53:20;14.80;85.80
2200;DHT22;1106;48.762;9.168;2022-10-30T06:55:54;14.90;85.50
2200;DHT22;1106;48.762;9.168;2022-10-30T06:58:22;14.90;85.00
2200;DHT22;1106;48.762;9.168;2022-10-30T07:00:49;14.90;85.00
2200;DHT22;1106;48.762;9.168;2022-10-30T07:03:16;15.00;84.60
2200;DHT22;1106;48.762;9.168;2022-10-30T07:05:43;15.10;84.50
2200;DHT22;1106;48.762;9.168;2022-10-30T07:08:10;15.20;84.50
2200;DHT22;1106;48.762;9.168;2022-10-30T07:10:37;15.30;84.10
2200;DHT22;1106;48.762;9.168;2022-10-30T07:13:05;15.30;83.60
2200;DHT22;1106;48.762;9.168;2022-10-30T07:15:32;15.40;83.20
2200;DHT22;1106;48.762;9.168;2022-10-30T07:18:01;15.40;83.00
2200;DHT22;1106;48.762;9.168;2022-10-30T07:20:30;15.50;82.50
2200;DHT22;1106;48.762;9.168;2022-10-30T07:22:57;15.60;82.30
2200;DHT22;1106;48.762;9.168;2022-10-30T07:25:24;15.60;82.10
2200;DHT22;1106;48.762;9.168;2022-10-30T07:27:52;15.60;82.00
2200;DHT22;1106;48.762;9.168;2022-10-30T07:30:23;15.70;82.00
2200;DHT22;1106;48.762;9.168;2022-10-30T07:32:57;15.80;81.60
2200;DHT22;1106;48.762;9.168;2022-10-30T07:35:24;15.90;81.30
2200;DHT22;1106;48.762;9.168;2022-10-30T07:37:51;15.90;80.90
2200;DHT22;1106;48.762;9.168;2022-10-30T07:40:18;16.00;80.60
2200;DHT22;1106;48.762;9.168;2022-10-30T07:42:45;16.10;80.10
2200;DHT22;1106;48.762;9.168;2022-10-30T07:45:12;16.20;79.90
2200;DHT22;1106;48.762;9.168;2022-10-30T07:47:40;16.20;79.80
2200;DHT22;1106;48.762;9.168;2022-10-30T07:50:08;16.30;79.20
2200;DHT22;1106;48.762;9.168;2022-10-30T07:52:36;16.40;79.00
2200;DHT22;1106;48.762;9.168;2022-10-30T07:55:03;16.50;78.70
2200;DHT22;1106;48.762;9.168;2022-10-30T07:57:34;16.50;78.70
2200;DHT22;1106;48.762;9.168;2022-10-30T08:00:02;16.70;78.10
2200;DHT22;1106;48.762;9.168;2022-10-30T08:02:29;16.80;77.50
2200;DHT22;1106;48.762;9.168;2022-10-30T08:04:57;16.90;77.30
2200;DHT22;1106;48.762;9.168;2022-10-30T08:07:28;16.90;76.80
2200;DHT22;1106;48.762;9.168;2022-10-30T08:09:55;17.00;76.40
2200;DHT22;1106;48.762;9.168;2022-10-30T08:12:22;17.20;76.20
2200;DHT22;1106;48.762;9.168;2022-10-30T08:14:49;17.30;75.80
2200;DHT22;1106;48.762;9.168;2022-10-30T08:17:16;17.40;75.60
2200;DHT22;1106;48.762;9.168;2022-10-30T08:19:44;17.50;75.50
2200;DHT22;1106;48.762;9.168;2022-10-30T08:22:12;17.60;75.20
2200;DHT22;1106;48.762;9.168;2022-10-30T08:24:40;17.60;75.10
2200;DHT22;1106;48.762;9.168;2022-10-30T08:27:07;17.70;74.90
2200;DHT22;1106;48.762;9.168;2022-10-30T08:29:34;17.80;74.70
2200;DHT22;1106;48.762;9.168;2022-10-30T08:32:01;17.90;74.70
2200;DHT22;1106;48.762;9.168;2022-10-30T08:34:27;18.00;74.20
2200;DHT22;1106;48.762;9.168;2022-10-30T08:36:56;18.10;74.10
2200;DHT22;1106;48.762;9.168;2022-10-30T08:39:26;18.20;73.90
2200;DHT22;1106;48.762;9.168;2022-10-30T08:41:53;18.20;73.70
2200;DHT22;1106;48.762;9.168;2022-10-30T08:44:19;18.30;73.60
2200;DHT22;1106;48.762;9.168;2022-10-30T08:46:46;18.40;73.60
2200;DHT22;1106;48.762;9.168;2022-10-30T08:49:13;18.50;73.40
2200;DHT22;1106;48.762;9.168;2022-10-30T08:51:40;18.60;73.10
2200;DHT22;1106;48.762;9.168;2022-10-30T08:54:08;18.70;72.90
2200;DHT22;1106;48.762;9.168;2022-10-30T08:56:36;18.70;72.60
2200;DHT22;1106;48.762;9.168;2022-10-30T08:59:03;18.80;72.40
2200;DHT22;1106;48.762;9.168;2022-10-30T09:01:35;18.80;72.30
2200;DHT22;1106;48.762;9.168;2022-10-30T09:04:04;18.90;72.10
2200;DHT22;1106;48.762;9.168;2022-10-30T09:06:31;18.90;71.90
2200;DHT22;1106;48.762;9.168;2022-10-30T09:08:58;19.00;71.60
2200;DHT22;1106;48.762;9.168;2022-10-30T09:11:25;19.10;71.50
2200;DHT22;1106;48.762;9.168;2022-10-30T09:13:53;19.10;71.50
2200;DHT22;1106;48.762;9.168;2022-10-30T09:16:20;19.20;71.40
2200;DHT22;1106;48.762;9.168;2022-10-30T09:18:47;19.20;71.10
2200;DHT22;1106;48.762;9.168;2022-10-30T09:21:14;19.20;71.40
2200;DHT22;1106;48.762;9.168;2022-10-30T09:23:41;19.30;71.20
2200;DHT22;1106;48.762;9.168;2022-10-30T09:26:09;19.30;71.40
2200;DHT22;1106;48.762;9.168;2022-10-30T09:28:36;19.20;71.60
2200;DHT22;1106;48.762;9.168;2022-10-30T09:31:04;19.30;71.50
2200;DHT22;1106;48.762;9.168;2022-10-30T09:33:31;19.40;71.30
2200;DHT22;1106;48.762;9.168;2022-10-30T09:35:59;19.50;71.20
2200;DHT22;1106;48.762;9.168;2022-10-30T09:38:27;19.50;71.20
2200;DHT22;1106;48.762;9.168;2022-10-30T09:41:11;19.50;71.40
2200;DHT22;1106;48.762;9.168;2022-10-30T09:43:49;19.60;71.30
2200;DHT22;1106;48.762;9.168;2022-10-30T09:46:39;19.70;71.00
2200;DHT22;1106;48.762;9.168;2022-10-30T09:49:27;19.90;70.50
2200;DHT22;1106;48.762;9.168;2022-10-30T09:52:19;20.10;69.90
2200;DHT22;1106;48.762;9.168;2022-10-30T09:54:56;20.20;69.80
2200;DHT22;1106;48.762;9.168;2022-10-30T09:57:33;20.20;69.90
2200;DHT22;1106;48.762;9.168;2022-10-30T10:00:07;20.30;69.50
2200;DHT22;1106;48.762;9.168;2022-10-30T10:02:43;20.40;69.10
2200;DHT22;1106;48.762;9.168;2022-10-30T10:05:16;20.50;68.60
2200;DHT22;1106;48.762;9.168;2022-10-30T10:07:46;20.50;68.80
2200;DHT22;1106;48.762;9.168;2022-10-30T10:10:19;20.50;69.20
2200;DHT22;1106;48.762;9.168;2022-10-30T10:12:49;20.50;69.50
2200;DHT22;1106;48.762;9.168;2022-10-30T10:15:25;20.70;68.70
2200;DHT22;1106;48.762;9.168;2022-10-30T10:17:58;20.70;68.70
2200;DHT22;1106;48.762;9.168;2022-10-30T10:20:31;20.80;68.60
2200;DHT22;1106;48.762;9.168;2022-10-30T10:23:01;20.90;68.60
2200;DHT22;1106;48.762;9.168;2022-10-30T10:25:30;21.00;68.40
2200;DHT22;1106;48.762;9.168;2022-10-30T10:28:05;21.00;68.30
2200;DHT22;1106;48.762;9.168;2022-10-30T10:30:41;21.00;68.30
2200;DHT22;1106;48.762;9.168;2022-10-30T10:33:29;21.10;68.20
2200;DHT22;1106;48.762;9.168;2022-10-30T10:36:04;21.10;68.30
2200;DHT22;1106;48.762;9.168;2022-10-30T10:38:49;21.20;68.20
2200;DHT22;1106;48.762;9.168;2022-10-30T10:41:30;21.30;68.00
2200;DHT22;1106;48.762;9.168;2022-10-30T10:44:08;21.40;67.70
2200;DHT22;1106;48.762;9.168;2022-10-30T10:46:52;21.50;67.20
2200;DHT22;1106;48.762;9.168;2022-10-30T10:49:38;21.60;67.00
2200;DHT22;1106;48.762;9.168;2022-10-30T10:52:10;21.80;66.80
2200;DHT22;1106;48.762;9.168;2022-10-30T10:54:42;21.80;66.40
2200;DHT22;1106;48.762;9.168;2022-10-30T10:57:16;21.90;66.10
2200;DHT22;1106;48.762;9.168;2022-10-30T10:59:48;22.00;66.00
2200;DHT22;1106;48.762;9.168;2022-10-30T11:02:28;22.20;65.50
2200;DHT22;1106;48.762;9.168;2022-10-30T11:05:03;22.20;65.80
2200;DHT22;1106;48.762;9.168;2022-10-30T11:07:33;22.10;66.00
2200;DHT22;1106;48.762;9.168;2022-10-30T11:10:09;22.30;65.80
2200;DHT22;1106;48.762;9.168;2022-10-30T11:12:37;22.40;65.70
2200;DHT22;1106;48.762;9.168;2022-10-30T11:15:16;22.30;65.90
2200;DHT22;1106;48.762;9.168;2022-10-30T11:17:50;22.30;66.10
2200;DHT22;1106;48.762;9.168;2022-10-30T11:20:22;22.40;66.30
2200;DHT22;1106;48.762;9.168;2022-10-30T11:22:53;22.50;65.90
2200;DHT22;1106;48.762;9.168;2022-10-30T11:25:21;22.60;65.80
2200;DHT22;1106;48.762;9.168;2022-10-30T11:27:54;22.70;65.60
2200;DHT22;1106;48.762;9.168;2022-10-30T11:30:23;22.80;65.50
2200;DHT22;1106;48.762;9.168;2022-10-30T11:32:53;22.90;65.20
2200;DHT22;1106;48.762;9.168;2022-10-30T11:35:21;23.10;65.00
2200;DHT22;1106;48.762;9.168;2022-10-30T11:37:50;23.20;64.60
2200;DHT22;1106;48.762;9.168;2022-10-30T11:40:19;23.30;64.50
2200;DHT22;1106;48.762;9.168;2022-10-30T11:42:48;23.40;64.30
2200;DHT22;1106;48.762;9.168;2022-10-30T11:45:17;23.50;64.10
2200;DHT22;1106;48.762;9.168;2022-10-30T11:47:45;23.60;64.00
2200;DHT22;1106;48.762;9.168;2022-10-30T11:50:18;23.60;64.00
2200;DHT22;1106;48.762;9.168;2022-10-30T11:52:49;23.70;63.70
2200;DHT22;1106;48.762;9.168;2022-10-30T11:55:18;23.70;63.40
2200;DHT22;1106;48.762;9.168;2022-10-30T11:57:48;23.70;63.40
2200;DHT22;1106;48.762;9.168;2022-10-30T12:00:17;23.70;63.30
2200;DHT22;1106;48.762;9.168;2022-10-30T12:02:46;23.80;63.00
2200;DHT22;1106;48.762;9.168;2022-10-30T12:05:30;23.80;63.00
2200;DHT22;1106;48.762;9.168;2022-10-30T12:11:04;23.80;63.70
2200;DHT22;1106;48.762;9.168;2022-10-30T12:13:38;23.90;63.20
2200;DHT22;1106;48.762;9.168;2022-10-30T12:16:13;23.90;63.10
2200;DHT22;1106;48.762;9.168;2022-10-30T12:18:49;24.00;63.10
2200;DHT22;1106;48.762;9.168;2022-10-30T12:21:19;24.00;63.10
2200;DHT22;1106;48.762;9.168;2022-10-30T12:23:51;24.10;63.00
2200;DHT22;1106;48.762;9.168;2022-10-30T12:26:22;24.20;63.00
2200;DHT22;1106;48.762;9.168;2022-10-30T12:28:54;24.20;62.70
2200;DHT22;1106;48.762;9.168;2022-10-30T12:31:28;24.30;62.60
